createdAt,value
2023-04-18T00:00:19.157Z,26.15
2023-04-18T00:01:19.195Z,27.58
2023-04-18T00:02:19.268Z,29.23
2023-04-18T00:03:19.308Z,25.97
2023-04-18T00:04:20.677Z,29.52
2023-04-18T00:05:20.275Z,25.74
2023-04-18T00:06:20.180Z,25.49
2023-04-18T00:07:19.187Z,27.44
2023-04-18T00:08:20.201Z,28.32
2023-04-18T00:09:20.240Z,29.35
2023-04-18T00:10:20.226Z,30.77
2023-04-18T00:11:19.323Z,29.60
2023-04-18T00:12:19.214Z,27.22
2023-04-18T00:13:20.256Z,29.19
2023-04-18T00:14:19.235Z,28.62
2023-04-18T00:15:19.272Z,27.34
2023-04-18T00:16:20.274Z,28.94
2023-04-18T00:17:19.297Z,28.57
2023-04-18T00:18:20.276Z,29.09
2023-04-18T00:19:20.329Z,27.12
2023-04-18T00:20:19.314Z,26.53
2023-04-18T00:21:19.334Z,28.59
2023-04-18T00:22:20.390Z,30.10
2023-04-18T00:23:19.421Z,29.25
2023-04-18T00:24:20.472Z,27.55
2023-04-18T00:25:20.525Z,26.19
2023-04-18T00:26:20.520Z,27.70
2023-04-18T00:27:20.572Z,29.68
2023-04-18T00:28:20.618Z,27.10
2023-04-18T00:29:19.673Z,25.00
2023-04-18T00:30:20.689Z,29.80
2023-04-18T00:31:20.832Z,29.07
2023-04-18T00:32:20.832Z,31.12
2023-04-18T00:33:20.865Z,28.81
2023-04-18T00:34:19.913Z,28.27
2023-04-18T00:35:20.936Z,27.92
2023-04-18T00:36:20.996Z,27.39
2023-04-18T00:37:21.061Z,27.24
2023-04-18T00:38:21.112Z,29.88
2023-04-18T00:39:20.162Z,26.28
2023-04-18T00:40:21.211Z,28.51
2023-04-18T00:41:20.259Z,28.42
2023-04-18T00:42:21.319Z,28.99
2023-04-18T00:43:20.387Z,29.39
2023-04-18T00:44:21.402Z,26.89
2023-04-18T00:45:20.436Z,25.20
2023-04-18T00:46:21.522Z,27.48
2023-04-18T00:47:21.521Z,28.94
2023-04-18T00:48:20.521Z,26.76
2023-04-18T00:49:21.581Z,27.40
2023-04-18T00:50:21.612Z,28.46
2023-04-18T00:51:20.663Z,26.19
2023-04-18T00:52:21.686Z,26.99
2023-04-18T00:53:21.824Z,27.71
2023-04-18T00:54:21.783Z,28.23
2023-04-18T00:55:20.892Z,28.10
2023-04-18T00:56:21.828Z,27.23
2023-04-18T00:57:21.917Z,26.82
2023-04-18T00:58:21.914Z,27.06
2023-04-18T00:59:21.932Z,26.49
2023-04-18T01:00:21.939Z,29.12
2023-04-18T01:01:22.013Z,27.23
2023-04-18T01:02:22.141Z,27.82
2023-04-18T01:03:21.143Z,27.38
2023-04-18T01:04:22.092Z,28.68
2023-04-18T01:05:21.075Z,28.68
2023-04-18T01:06:22.058Z,26.30
2023-04-18T01:07:22.104Z,28.06
2023-04-18T01:08:22.097Z,27.64
2023-04-18T01:09:22.200Z,27.02
2023-04-18T01:10:21.151Z,30.16
2023-04-18T01:11:22.155Z,27.54
2023-04-18T01:12:21.172Z,28.89
2023-04-18T01:13:21.200Z,29.86
2023-04-18T01:14:22.203Z,27.97
2023-04-18T01:15:22.212Z,28.31
2023-04-18T01:16:22.230Z,28.54
2023-04-18T01:17:21.211Z,27.83
2023-04-18T01:18:22.182Z,28.58
2023-04-18T01:19:22.226Z,27.37
2023-04-18T01:20:21.209Z,26.15
2023-04-18T01:21:21.324Z,28.91
2023-04-18T01:22:22.343Z,27.49
2023-04-18T01:23:22.351Z,26.12
2023-04-18T01:24:22.377Z,29.51
2023-04-18T01:25:22.408Z,29.69
2023-04-18T01:26:21.464Z,28.43
2023-04-18T01:27:21.490Z,26.13
2023-04-18T01:28:22.529Z,27.22
2023-04-18T01:29:21.556Z,27.79
2023-04-18T01:30:21.590Z,27.27
2023-04-18T01:31:22.661Z,26.34
2023-04-18T01:32:21.672Z,29.14
2023-04-18T01:33:21.649Z,27.19
2023-04-18T01:34:22.674Z,29.26
2023-04-18T01:35:21.711Z,29.66
2023-04-18T01:36:22.716Z,26.86
2023-04-18T01:37:22.747Z,27.19
2023-04-18T01:38:21.752Z,29.37
2023-04-18T01:39:21.792Z,27.15
2023-04-18T01:40:22.770Z,28.21
2023-04-18T01:41:21.780Z,29.22
2023-04-18T01:42:22.836Z,28.69
2023-04-18T01:43:22.805Z,28.20
2023-04-18T01:44:22.865Z,29.41
2023-04-18T01:45:21.795Z,29.06
2023-04-18T01:46:21.820Z,28.98
2023-04-18T01:47:22.843Z,27.84
2023-04-18T01:48:21.844Z,29.47
2023-04-18T01:49:21.849Z,28.85
2023-04-18T01:50:21.851Z,28.98
2023-04-18T01:51:21.881Z,27.88
2023-04-18T01:52:21.882Z,29.59
2023-04-18T01:53:22.921Z,28.42
2023-04-18T01:54:22.922Z,27.85
2023-04-18T01:55:22.908Z,27.66
2023-04-18T01:56:21.926Z,28.72
2023-04-18T01:57:22.926Z,28.39
2023-04-18T01:58:21.964Z,27.84
2023-04-18T01:59:21.955Z,28.68
2023-04-18T02:00:22.033Z,27.05
2023-04-18T02:01:23.142Z,29.17
2023-04-18T02:02:22.149Z,29.62
2023-04-18T02:03:23.230Z,28.96
2023-04-18T02:04:22.150Z,29.54
2023-04-18T02:05:23.183Z,25.00
2023-04-18T02:06:23.190Z,27.98
2023-04-18T02:07:23.249Z,28.16
2023-04-18T02:08:23.252Z,28.52
2023-04-18T02:09:23.320Z,27.19
2023-04-18T02:10:22.298Z,27.54
2023-04-18T02:11:22.301Z,29.11
2023-04-18T02:12:23.336Z,29.59
2023-04-18T02:13:23.394Z,29.90
2023-04-18T02:14:22.401Z,30.54
2023-04-18T02:15:23.423Z,28.50
2023-04-18T02:16:22.441Z,30.01
2023-04-18T02:17:23.730Z,28.72
2023-04-18T02:18:23.460Z,27.60
2023-04-18T02:19:22.538Z,24.93
2023-04-18T02:20:22.508Z,29.38
2023-04-18T02:21:23.519Z,27.79
2023-04-18T02:22:22.555Z,28.34
2023-04-18T02:23:23.557Z,29.48
2023-04-18T02:24:23.609Z,27.97
2023-04-18T02:25:22.645Z,30.25
2023-04-18T02:26:22.630Z,29.75
2023-04-18T02:27:22.679Z,28.52
2023-04-18T02:28:23.721Z,28.11
2023-04-18T02:29:23.729Z,30.29
2023-04-18T02:30:23.771Z,30.07
2023-04-18T02:31:22.818Z,27.64
2023-04-18T02:32:23.861Z,27.48
2023-04-18T02:33:22.839Z,27.89
2023-04-18T02:34:22.932Z,27.33
2023-04-18T02:35:23.879Z,28.24
2023-04-18T02:36:23.974Z,28.10
2023-04-18T02:37:23.036Z,30.59
2023-04-18T02:38:24.032Z,28.63
2023-04-18T02:39:23.050Z,26.40
2023-04-18T02:40:24.054Z,27.27
2023-04-18T02:41:23.063Z,28.67
2023-04-18T02:42:23.114Z,29.70
2023-04-18T02:43:23.120Z,28.81
2023-04-18T02:44:24.175Z,29.31
2023-04-18T02:45:24.272Z,28.99
2023-04-18T02:46:24.298Z,27.45
2023-04-18T02:47:23.300Z,29.93
2023-04-18T02:48:24.443Z,27.93
2023-04-18T02:49:24.317Z,28.57
2023-04-18T02:50:23.376Z,25.00
2023-04-18T02:51:23.380Z,26.95
2023-04-18T02:52:24.415Z,31.36
2023-04-18T02:53:24.479Z,28.80
2023-04-18T02:54:24.535Z,29.97
2023-04-18T02:55:24.528Z,28.23
2023-04-18T02:56:23.558Z,29.97
2023-04-18T02:57:24.652Z,29.14
2023-04-18T02:58:24.621Z,30.63
2023-04-18T02:59:24.662Z,30.16
2023-04-18T03:00:24.650Z,28.92
2023-04-18T03:01:24.702Z,28.73
2023-04-18T03:02:24.760Z,28.67
2023-04-18T03:03:24.773Z,26.24
2023-04-18T03:04:23.768Z,29.66
2023-04-18T03:05:23.757Z,29.37
2023-04-18T03:06:24.775Z,29.64
2023-04-18T03:07:24.903Z,28.41
2023-04-18T03:08:24.916Z,31.39
2023-04-18T03:09:24.935Z,27.81
2023-04-18T03:10:25.012Z,28.65
2023-04-18T03:11:25.031Z,30.23
2023-04-18T03:12:25.143Z,31.56
2023-04-18T03:13:24.116Z,29.76
2023-04-18T03:14:24.175Z,31.34
2023-04-18T03:15:25.201Z,28.35
2023-04-18T03:16:24.279Z,28.03
2023-04-18T03:17:24.305Z,28.65
2023-04-18T03:18:25.306Z,29.61
2023-04-18T03:19:25.401Z,30.36
2023-04-18T03:20:25.439Z,29.52
2023-04-18T03:21:25.513Z,30.53
2023-04-18T03:22:25.573Z,27.84
2023-04-18T03:23:25.722Z,29.62
2023-04-18T03:24:25.779Z,28.08
2023-04-18T03:25:24.779Z,30.44
2023-04-18T03:26:25.836Z,27.17
2023-04-18T03:27:24.883Z,29.46
2023-04-18T03:28:25.051Z,30.91
2023-04-18T03:29:26.027Z,28.83
2023-04-18T03:30:26.088Z,30.51
2023-04-18T03:31:26.193Z,28.74
2023-04-18T03:32:25.240Z,27.24
2023-04-18T03:33:25.264Z,30.67
2023-04-18T03:34:26.326Z,27.60
2023-04-18T03:35:25.395Z,28.97
2023-04-18T03:36:26.446Z,29.98
2023-04-18T03:37:26.559Z,30.10
2023-04-18T03:38:26.566Z,27.75
2023-04-18T03:39:25.640Z,28.13
2023-04-18T03:40:25.695Z,29.69
2023-04-18T03:41:26.753Z,30.25
2023-04-18T03:42:25.807Z,28.02
2023-04-18T03:43:26.929Z,29.53
2023-04-18T03:44:26.923Z,28.43
2023-04-18T03:45:26.999Z,33.36
2023-04-18T03:46:27.096Z,27.20
2023-04-18T03:47:26.139Z,29.31
2023-04-18T03:48:26.178Z,30.73
2023-04-18T03:49:27.262Z,30.09
2023-04-18T03:50:27.312Z,29.24
2023-04-18T03:51:26.346Z,27.84
2023-04-18T03:52:27.514Z,28.13
2023-04-18T03:53:26.402Z,30.34
2023-04-18T03:54:26.424Z,27.99
2023-04-18T03:55:27.443Z,29.09
2023-04-18T03:56:27.416Z,33.06
2023-04-18T03:57:27.386Z,30.54
2023-04-18T03:58:27.389Z,29.24
2023-04-18T03:59:27.386Z,29.96
2023-04-18T04:00:27.374Z,30.18
2023-04-18T04:01:27.686Z,30.29
2023-04-18T04:02:27.515Z,31.08
2023-04-18T04:03:26.418Z,29.58
2023-04-18T04:04:26.535Z,32.60
2023-04-18T04:05:26.349Z,28.74
2023-04-18T04:06:27.372Z,30.04
2023-04-18T04:07:27.341Z,30.10
2023-04-18T04:08:28.239Z,29.30
2023-04-18T04:09:27.319Z,31.33
2023-04-18T04:10:27.284Z,28.95
2023-04-18T04:11:26.282Z,32.70
2023-04-18T04:12:27.320Z,30.15
2023-04-18T04:13:27.327Z,29.91
2023-04-18T04:14:27.281Z,27.85
2023-04-18T04:15:27.335Z,28.64
2023-04-18T04:16:27.410Z,30.08
2023-04-18T04:17:26.444Z,31.47
2023-04-18T04:18:26.489Z,30.06
2023-04-18T04:19:27.561Z,27.85
2023-04-18T04:20:27.590Z,27.89
2023-04-18T04:21:27.665Z,31.14
2023-04-18T04:22:26.735Z,28.99
2023-04-18T04:23:27.770Z,30.71
2023-04-18T04:24:27.863Z,32.07
2023-04-18T04:25:26.895Z,30.67
2023-04-18T04:26:26.962Z,28.59
2023-04-18T04:27:26.985Z,29.82
2023-04-18T04:28:28.114Z,27.67
2023-04-18T04:29:28.182Z,28.61
2023-04-18T04:30:27.179Z,28.82
2023-04-18T04:31:27.293Z,27.98
2023-04-18T04:32:28.398Z,29.85
2023-04-18T04:33:28.374Z,27.24
2023-04-18T04:34:28.432Z,27.52
2023-04-18T04:35:28.489Z,28.12
2023-04-18T04:36:28.542Z,27.57
2023-04-18T04:37:28.594Z,28.97
2023-04-18T04:38:27.671Z,28.21
2023-04-18T04:39:27.725Z,28.05
2023-04-18T04:40:28.821Z,28.33
2023-04-18T04:41:28.836Z,26.30
2023-04-18T04:42:28.885Z,26.43
2023-04-18T04:43:27.980Z,25.00
2023-04-18T04:44:29.067Z,26.87
2023-04-18T04:45:28.147Z,29.10
2023-04-18T04:46:29.148Z,28.46
2023-04-18T04:47:28.301Z,27.43
2023-04-18T04:48:28.275Z,27.84
2023-04-18T04:49:28.319Z,25.00
2023-04-18T04:50:29.374Z,29.74
2023-04-18T04:51:29.435Z,25.69
2023-04-18T04:52:29.496Z,27.46
2023-04-18T04:53:29.530Z,27.30
2023-04-18T04:54:28.612Z,26.55
2023-04-18T04:55:29.640Z,28.63
2023-04-18T04:56:29.726Z,28.19
2023-04-18T04:57:29.763Z,28.16
2023-04-18T04:58:29.809Z,27.04
2023-04-18T04:59:28.899Z,27.42
2023-04-18T05:00:29.925Z,29.27
2023-04-18T05:01:30.058Z,29.83
2023-04-18T05:02:30.200Z,28.75
2023-04-18T05:03:30.279Z,27.84
2023-04-18T05:04:30.307Z,28.00
2023-04-18T05:05:29.236Z,29.10
2023-04-18T05:06:29.243Z,27.60
2023-04-18T05:07:30.305Z,29.11
2023-04-18T05:08:29.361Z,31.49
2023-04-18T05:09:30.426Z,31.54
2023-04-18T05:10:29.494Z,30.92
2023-04-18T05:11:30.535Z,29.22
2023-04-18T05:12:29.635Z,30.35
2023-04-18T05:13:30.660Z,32.67
2023-04-18T05:14:30.721Z,30.07
2023-04-18T05:15:29.804Z,32.86
2023-04-18T05:16:30.901Z,31.48
2023-04-18T05:17:29.921Z,28.69
2023-04-18T05:18:32.998Z,29.44
2023-04-18T05:19:29.974Z,29.67
2023-04-18T05:20:30.983Z,29.90
2023-04-18T05:21:30.950Z,28.59
2023-04-18T05:22:30.951Z,30.19
2023-04-18T05:23:30.951Z,29.72
2023-04-18T05:24:30.944Z,30.31
2023-04-18T05:25:30.064Z,31.06
2023-04-18T05:26:29.909Z,27.21
2023-04-18T05:27:30.955Z,26.59
2023-04-18T05:28:30.895Z,26.96
2023-04-18T05:29:29.957Z,26.80
2023-04-18T05:30:30.898Z,25.08
2023-04-18T05:31:31.016Z,33.93
2023-04-18T05:32:29.903Z,33.41
2023-04-18T05:33:30.887Z,34.78
2023-04-18T05:34:30.873Z,30.73
2023-04-18T05:35:30.854Z,30.78
2023-04-18T05:36:30.842Z,26.46
2023-04-18T05:37:29.836Z,27.70
2023-04-18T05:38:30.826Z,27.64
2023-04-18T05:39:30.841Z,25.00
2023-04-18T05:40:29.853Z,31.39
2023-04-18T05:41:30.794Z,31.58
2023-04-18T05:42:30.785Z,29.46
2023-04-18T05:43:29.791Z,31.92
2023-04-18T05:44:30.781Z,33.07
2023-04-18T05:45:30.781Z,34.01
2023-04-18T05:46:30.806Z,37.25
2023-04-18T05:47:29.841Z,39.79
2023-04-18T05:48:30.806Z,39.36
2023-04-18T05:49:29.738Z,39.05
2023-04-18T05:50:30.761Z,42.25
2023-04-18T05:51:30.740Z,44.76
2023-04-18T05:52:30.780Z,54.17
2023-04-18T05:53:30.712Z,39.40
2023-04-18T05:54:29.725Z,25.00
2023-04-18T05:55:29.890Z,28.06
2023-04-18T05:56:31.054Z,34.84
2023-04-18T05:57:29.869Z,55.64
2023-04-18T05:58:30.910Z,65.97
2023-04-18T05:59:30.035Z,79.33
2023-04-18T06:00:31.242Z,79.14
2023-04-18T06:01:30.097Z,103.86
2023-04-18T06:02:31.177Z,99.77
2023-04-18T06:03:31.201Z,98.34
2023-04-18T06:04:32.037Z,100.31
2023-04-18T06:05:31.430Z,103.11
2023-04-18T06:06:31.154Z,97.79
2023-04-18T06:07:31.093Z,93.38
2023-04-18T06:08:31.115Z,95.59
2023-04-18T06:09:37.162Z,96.18
2023-04-18T06:10:30.123Z,96.50
2023-04-18T06:11:31.089Z,96.41
2023-04-18T06:12:31.082Z,96.72
2023-04-18T06:13:31.105Z,95.69
2023-04-18T06:14:31.099Z,93.58
2023-04-18T06:15:31.079Z,93.58
2023-04-18T06:16:31.081Z,90.71
2023-04-18T06:17:30.084Z,94.30
2023-04-18T06:18:31.033Z,94.61
2023-04-18T06:19:31.032Z,93.82
2023-04-18T06:20:31.079Z,92.41
2023-04-18T06:21:31.034Z,91.32
2023-04-18T06:22:31.046Z,92.36
2023-04-18T06:23:31.006Z,94.82
2023-04-18T06:24:31.311Z,92.66
2023-04-18T06:25:30.984Z,94.81
2023-04-18T06:26:30.982Z,93.75
2023-04-18T06:27:31.884Z,94.98
2023-04-18T06:28:30.974Z,98.34
2023-04-18T06:29:30.953Z,98.43
2023-04-18T06:30:30.993Z,95.81
2023-04-18T06:31:30.997Z,96.43
2023-04-18T06:32:30.964Z,97.84
2023-04-18T06:33:30.932Z,96.31
2023-04-18T06:34:29.924Z,97.85
2023-04-18T06:35:30.932Z,100.18
2023-04-18T06:36:30.940Z,100.25
2023-04-18T06:37:29.984Z,105.68
2023-04-18T06:38:31.112Z,103.22
2023-04-18T06:39:31.047Z,106.80
2023-04-18T06:40:30.099Z,108.69
2023-04-18T06:41:31.087Z,105.07
2023-04-18T06:42:30.146Z,103.88
2023-04-18T06:43:30.169Z,101.78
2023-04-18T06:44:31.226Z,102.00
2023-04-18T06:45:31.386Z,103.88
2023-04-18T06:46:31.400Z,103.70
2023-04-18T06:47:30.457Z,104.52
2023-04-18T06:48:31.342Z,108.68
2023-04-18T06:49:30.375Z,106.58
2023-04-18T06:50:31.469Z,106.12
2023-04-18T06:51:31.433Z,116.34
2023-04-18T06:52:30.434Z,148.17
2023-04-18T06:53:31.417Z,151.54
2023-04-18T06:54:31.470Z,145.43
2023-04-18T06:55:31.730Z,162.71
2023-04-18T06:56:31.477Z,172.31
2023-04-18T06:57:30.469Z,207.66
2023-04-18T06:58:31.497Z,228.46
2023-04-18T06:59:31.507Z,250.00
2023-04-18T07:00:31.536Z,242.50
2023-04-18T07:01:30.570Z,244.30
2023-04-18T07:02:30.617Z,246.07
2023-04-18T07:03:31.579Z,247.84
2023-04-18T07:04:31.595Z,247.34
2023-04-18T07:05:30.569Z,232.02
2023-04-18T07:06:30.523Z,217.83
2023-04-18T07:07:31.559Z,211.47
2023-04-18T07:08:31.567Z,211.66
2023-04-18T07:09:31.629Z,210.98
2023-04-18T07:10:31.700Z,206.34
2023-04-18T07:11:31.694Z,197.61
2023-04-18T07:12:31.747Z,189.95
2023-04-18T07:13:31.804Z,182.34
2023-04-18T07:14:32.876Z,183.56
2023-04-18T07:15:31.819Z,179.28
2023-04-18T07:16:31.935Z,174.56
2023-04-18T07:17:31.842Z,168.41
2023-04-18T07:18:38.008Z,167.34
2023-04-18T07:19:31.778Z,167.70
2023-04-18T07:20:31.789Z,166.08
2023-04-18T07:21:30.784Z,159.58
2023-04-18T07:22:31.752Z,153.43
2023-04-18T07:23:31.763Z,152.54
2023-04-18T07:24:30.742Z,150.91
2023-04-18T07:25:31.765Z,148.94
2023-04-18T07:26:31.765Z,148.58
2023-04-18T07:27:30.739Z,147.98
2023-04-18T07:28:31.744Z,151.95
2023-04-18T07:29:31.725Z,148.15
2023-04-18T07:30:31.715Z,145.03
2023-04-18T07:31:31.780Z,142.88
2023-04-18T07:32:31.722Z,146.07
2023-04-18T07:33:31.807Z,144.66
2023-04-18T07:34:30.676Z,141.05
2023-04-18T07:35:31.667Z,142.75
2023-04-18T07:36:31.665Z,139.31
2023-04-18T07:37:31.645Z,138.14
2023-04-18T07:38:31.661Z,137.64
2023-04-18T07:39:31.638Z,139.20
2023-04-18T07:40:31.625Z,139.05
2023-04-18T07:41:31.623Z,140.28
2023-04-18T07:42:31.652Z,133.01
2023-04-18T07:43:31.694Z,129.90
2023-04-18T07:44:30.735Z,133.31
2023-04-18T07:45:31.795Z,127.04
2023-04-18T07:46:31.876Z,132.16
2023-04-18T07:47:32.913Z,140.15
2023-04-18T07:48:32.012Z,138.81
2023-04-18T07:49:31.996Z,171.04
2023-04-18T07:50:31.286Z,197.81
2023-04-18T07:51:32.069Z,154.65
2023-04-18T07:52:32.086Z,141.94
2023-04-18T07:53:32.112Z,144.62
2023-04-18T07:54:31.150Z,146.79
2023-04-18T07:55:32.196Z,144.46
2023-04-18T07:56:31.215Z,142.20
2023-04-18T07:57:32.200Z,152.26
2023-04-18T07:58:31.256Z,151.38
2023-04-18T07:59:32.278Z,152.93
2023-04-18T08:00:32.234Z,153.11
2023-04-18T08:01:32.222Z,149.68
2023-04-18T08:02:32.368Z,146.00
2023-04-18T08:03:31.390Z,143.38
2023-04-18T08:04:32.410Z,142.47
2023-04-18T08:05:32.471Z,140.52
2023-04-18T08:06:32.382Z,137.58
2023-04-18T08:07:31.441Z,139.97
2023-04-18T08:08:32.474Z,141.29
2023-04-18T08:09:32.561Z,143.38
2023-04-18T08:10:32.636Z,142.44
2023-04-18T08:11:32.670Z,136.04
2023-04-18T08:12:32.745Z,137.18
2023-04-18T08:13:32.888Z,134.09
2023-04-18T08:14:31.863Z,131.66
2023-04-18T08:15:33.098Z,131.34
2023-04-18T08:16:33.004Z,130.72
2023-04-18T08:17:32.046Z,127.51
2023-04-18T08:18:33.103Z,127.50
2023-04-18T08:19:33.162Z,128.17
2023-04-18T08:20:33.239Z,124.09
2023-04-18T08:21:33.282Z,126.82
2023-04-18T08:22:33.330Z,122.01
2023-04-18T08:23:32.383Z,126.97
2023-04-18T08:24:33.443Z,124.74
2023-04-18T08:25:33.516Z,123.41
2023-04-18T08:26:33.564Z,122.44
2023-04-18T08:27:32.634Z,123.38
2023-04-18T08:28:33.686Z,120.05
2023-04-18T08:29:33.835Z,119.66
2023-04-18T08:30:33.813Z,118.24
2023-04-18T08:31:33.915Z,118.00
2023-04-18T08:32:32.939Z,118.47
2023-04-18T08:33:32.972Z,121.12
2023-04-18T08:34:34.041Z,120.11
2023-04-18T08:35:34.120Z,119.77
2023-04-18T08:36:34.134Z,121.62
2023-04-18T08:37:33.184Z,120.74
2023-04-18T08:38:34.247Z,122.93
2023-04-18T08:39:34.285Z,119.79
2023-04-18T08:40:34.387Z,121.17
2023-04-18T08:41:34.419Z,124.93
2023-04-18T08:42:33.429Z,126.76
2023-04-18T08:43:34.476Z,134.30
2023-04-18T08:44:33.553Z,145.06
2023-04-18T08:45:33.759Z,196.85
2023-04-18T08:46:33.667Z,213.28
2023-04-18T08:47:33.753Z,217.57
2023-04-18T08:48:34.754Z,216.03
2023-04-18T08:49:34.823Z,229.98
2023-04-18T08:50:34.878Z,241.66
2023-04-18T08:51:34.931Z,250.00
2023-04-18T08:52:34.974Z,243.51
2023-04-18T08:53:34.111Z,234.70
2023-04-18T08:54:34.080Z,247.61
2023-04-18T08:55:35.138Z,196.79
2023-04-18T08:56:34.303Z,250.00
2023-04-18T08:57:35.275Z,250.00
2023-04-18T08:58:35.326Z,239.64
2023-04-18T08:59:34.376Z,236.44
2023-04-18T09:00:34.436Z,219.18
2023-04-18T09:01:35.559Z,176.96
2023-04-18T09:02:34.613Z,179.59
2023-04-18T09:03:34.633Z,164.78
2023-04-18T09:04:35.694Z,183.97
2023-04-18T09:05:35.744Z,191.42
2023-04-18T09:06:35.822Z,183.62
2023-04-18T09:07:35.853Z,179.80
2023-04-18T09:08:34.896Z,172.72
2023-04-18T09:09:35.994Z,170.21
2023-04-18T09:10:35.023Z,166.08
2023-04-18T09:11:36.088Z,161.76
2023-04-18T09:12:35.127Z,156.94
2023-04-18T09:13:35.162Z,155.75
2023-04-18T09:14:35.222Z,154.73
2023-04-18T09:15:35.284Z,148.84
2023-04-18T09:16:35.354Z,150.44
2023-04-18T09:17:36.426Z,148.70
2023-04-18T09:18:36.445Z,148.27
2023-04-18T09:19:36.486Z,145.87
2023-04-18T09:20:35.675Z,145.96
2023-04-18T09:21:36.560Z,143.21
2023-04-18T09:22:37.959Z,137.40
2023-04-18T09:23:35.598Z,140.82
2023-04-18T09:24:36.593Z,139.83
2023-04-18T09:25:37.476Z,136.11
2023-04-18T09:26:36.591Z,136.26
2023-04-18T09:27:36.621Z,136.75
2023-04-18T09:28:36.557Z,139.39
2023-04-18T09:29:36.569Z,140.21
2023-04-18T09:30:35.580Z,139.34
2023-04-18T09:31:35.623Z,138.93
2023-04-18T09:32:35.528Z,135.90
2023-04-18T09:33:36.631Z,134.62
2023-04-18T09:34:35.543Z,135.35
2023-04-18T09:35:35.519Z,135.36
2023-04-18T09:36:35.609Z,133.48
2023-04-18T09:37:36.498Z,133.90
2023-04-18T09:38:37.293Z,132.87
2023-04-18T09:39:35.487Z,128.63
2023-04-18T09:40:36.491Z,130.81
2023-04-18T09:41:36.490Z,132.47
2023-04-18T09:42:35.476Z,132.32
2023-04-18T09:43:36.457Z,129.67
2023-04-18T09:44:36.454Z,126.09
2023-04-18T09:45:36.438Z,128.18
2023-04-18T09:46:36.842Z,127.46
2023-04-18T09:47:36.758Z,113.57
2023-04-18T09:48:35.539Z,101.32
2023-04-18T09:49:36.523Z,103.17
2023-04-18T09:50:36.405Z,98.67
2023-04-18T09:51:36.828Z,99.69
2023-04-18T09:52:36.401Z,93.03
2023-04-18T09:53:36.380Z,100.65
2023-04-18T09:54:36.384Z,100.19
2023-04-18T09:55:35.387Z,105.34
2023-04-18T09:56:35.795Z,113.66
2023-04-18T09:57:35.499Z,105.57
2023-04-18T09:58:36.533Z,114.79
2023-04-18T09:59:35.592Z,119.28
2023-04-18T10:00:36.640Z,116.65
2023-04-18T10:01:35.778Z,121.55
2023-04-18T10:02:36.864Z,123.75
2023-04-18T10:03:36.868Z,116.58
2023-04-18T10:04:35.949Z,126.96
2023-04-18T10:05:36.090Z,121.35
2023-04-18T10:06:36.972Z,123.55
2023-04-18T10:07:36.957Z,125.59
2023-04-18T10:08:36.996Z,116.33
2023-04-18T10:09:36.045Z,125.90
2023-04-18T10:10:38.785Z,126.95
2023-04-18T10:11:37.093Z,128.23
2023-04-18T10:12:37.082Z,124.35
2023-04-18T10:13:37.059Z,129.96
2023-04-18T10:14:36.057Z,126.57
2023-04-18T10:15:36.093Z,127.87
2023-04-18T10:16:37.113Z,123.92
2023-04-18T10:17:36.036Z,120.99
2023-04-18T10:18:37.074Z,123.57
2023-04-18T10:19:37.032Z,129.40
2023-04-18T10:20:37.016Z,122.75
2023-04-18T10:21:37.051Z,119.36
2023-04-18T10:22:35.988Z,112.19
2023-04-18T10:23:37.073Z,113.61
2023-04-18T10:24:36.986Z,112.90
2023-04-18T10:25:35.964Z,117.29
2023-04-18T10:26:36.015Z,114.13
2023-04-18T10:27:36.957Z,121.75
2023-04-18T10:28:37.104Z,115.76
2023-04-18T10:29:36.950Z,108.21
2023-04-18T10:30:36.931Z,104.53
2023-04-18T10:31:36.984Z,109.69
2023-04-18T10:32:35.962Z,115.13
2023-04-18T10:33:40.828Z,117.44
2023-04-18T10:34:36.908Z,117.89
2023-04-18T10:35:36.895Z,118.80
2023-04-18T10:36:35.903Z,120.93
2023-04-18T10:37:35.990Z,125.38
2023-04-18T10:38:36.868Z,126.74
2023-04-18T10:39:36.853Z,111.46
2023-04-18T10:40:36.865Z,110.92
2023-04-18T10:41:35.863Z,120.45
2023-04-18T10:42:37.319Z,114.06
2023-04-18T10:43:36.835Z,102.99
2023-04-18T10:44:35.820Z,114.70
2023-04-18T10:45:35.807Z,110.51
2023-04-18T10:46:35.869Z,99.11
2023-04-18T10:47:36.071Z,100.39
2023-04-18T10:48:38.616Z,99.71
2023-04-18T10:49:36.789Z,119.27
2023-04-18T10:50:36.773Z,111.61
2023-04-18T10:51:35.781Z,106.02
2023-04-18T10:52:35.842Z,98.25
2023-04-18T10:53:35.997Z,98.83
2023-04-18T10:54:36.767Z,101.43
2023-04-18T10:55:36.750Z,105.74
2023-04-18T10:56:35.760Z,118.13
2023-04-18T10:57:35.724Z,122.78
2023-04-18T10:58:36.729Z,114.73
2023-04-18T10:59:35.723Z,112.33
2023-04-18T11:00:35.730Z,121.97
2023-04-18T11:01:35.779Z,120.78
2023-04-18T11:02:36.827Z,119.33
2023-04-18T11:03:36.797Z,120.14
2023-04-18T11:04:36.704Z,121.71
2023-04-18T11:05:36.671Z,112.93
2023-04-18T11:06:36.665Z,114.61
2023-04-18T11:07:36.658Z,119.60
2023-04-18T11:08:35.648Z,121.37
2023-04-18T11:09:35.685Z,120.20
2023-04-18T11:10:35.637Z,121.97
2023-04-18T11:11:35.621Z,126.63
2023-04-18T11:12:36.686Z,139.56
2023-04-18T11:13:36.598Z,118.47
2023-04-18T11:14:36.600Z,124.41
2023-04-18T11:15:36.629Z,122.20
2023-04-18T11:16:36.740Z,125.49
2023-04-18T11:17:36.744Z,128.90
2023-04-18T11:18:36.785Z,128.11
2023-04-18T11:19:36.849Z,119.86
2023-04-18T11:20:35.907Z,123.84
2023-04-18T11:21:36.962Z,121.70
2023-04-18T11:22:37.480Z,123.97
2023-04-18T11:23:37.068Z,126.62
2023-04-18T11:24:37.129Z,121.04
2023-04-18T11:25:37.217Z,131.80
2023-04-18T11:26:37.280Z,128.99
2023-04-18T11:27:37.271Z,127.92
2023-04-18T11:28:36.320Z,126.74
2023-04-18T11:29:36.436Z,131.92
2023-04-18T11:30:36.427Z,138.34
2023-04-18T11:31:37.510Z,142.96
2023-04-18T11:32:37.570Z,158.73
2023-04-18T11:33:36.581Z,159.47
2023-04-18T11:34:37.671Z,160.94
2023-04-18T11:35:37.696Z,163.56
2023-04-18T11:36:37.677Z,157.54
2023-04-18T11:37:36.848Z,157.98
2023-04-18T11:38:36.715Z,151.71
2023-04-18T11:39:37.735Z,148.77
2023-04-18T11:40:37.729Z,166.57
2023-04-18T11:41:37.769Z,157.14
2023-04-18T11:42:36.813Z,160.24
2023-04-18T11:43:37.874Z,161.46
2023-04-18T11:44:37.946Z,169.24
2023-04-18T11:45:38.042Z,176.62
2023-04-18T11:46:38.220Z,182.09
2023-04-18T11:47:37.095Z,188.41
2023-04-18T11:48:37.121Z,192.25
2023-04-18T11:49:38.180Z,198.74
2023-04-18T11:50:38.228Z,195.84
2023-04-18T11:51:38.242Z,199.04
2023-04-18T11:52:37.284Z,203.42
2023-04-18T11:53:37.315Z,198.89
2023-04-18T11:54:38.378Z,194.30
2023-04-18T11:55:38.400Z,198.46
2023-04-18T11:56:38.442Z,190.18
2023-04-18T11:57:38.556Z,191.62
2023-04-18T11:58:37.524Z,185.06
2023-04-18T11:59:37.568Z,184.67
2023-04-18T12:00:37.657Z,183.78
2023-04-18T12:01:37.636Z,190.80
2023-04-18T12:02:37.819Z,176.35
2023-04-18T12:03:38.828Z,177.85
2023-04-18T12:04:37.907Z,176.41
2023-04-18T12:05:38.240Z,167.79
2023-04-18T12:06:37.843Z,171.40
2023-04-18T12:07:38.879Z,178.01
2023-04-18T12:08:37.913Z,180.72
2023-04-18T12:09:37.958Z,183.14
2023-04-18T12:10:38.998Z,177.73
2023-04-18T12:11:39.038Z,189.44
2023-04-18T12:12:39.074Z,185.47
2023-04-18T12:13:38.143Z,194.98
2023-04-18T12:14:39.147Z,194.64
2023-04-18T12:15:39.280Z,189.60
2023-04-18T12:16:38.228Z,182.01
2023-04-18T12:17:39.343Z,177.25
2023-04-18T12:18:38.311Z,180.30
2023-04-18T12:19:39.348Z,171.28
2023-04-18T12:20:38.413Z,166.08
2023-04-18T12:21:39.424Z,182.16
2023-04-18T12:22:38.463Z,180.29
2023-04-18T12:23:39.510Z,173.99
2023-04-18T12:24:39.577Z,183.52
2023-04-18T12:25:38.607Z,179.56
2023-04-18T12:26:38.645Z,167.32
2023-04-18T12:27:38.706Z,193.49
2023-04-18T12:28:39.839Z,200.71
2023-04-18T12:29:39.814Z,202.62
2023-04-18T12:30:39.873Z,214.52
2023-04-18T12:31:39.936Z,217.05
2023-04-18T12:32:38.948Z,199.18
2023-04-18T12:33:39.958Z,194.88
2023-04-18T12:34:40.010Z,187.25
2023-04-18T12:35:40.049Z,167.41
2023-04-18T12:36:40.095Z,204.42
2023-04-18T12:37:39.144Z,214.59
2023-04-18T12:38:40.179Z,214.51
2023-04-18T12:39:39.217Z,213.57
2023-04-18T12:40:39.256Z,209.90